createdAt,value
2022-08-31T00:00:44.252Z,80.71
2022-08-31T00:02:04.415Z,81.18
2022-08-31T00:03:25.346Z,81.35
2022-08-31T00:04:27.782Z,81.23
2022-08-31T00:05:29.592Z,81.13
2022-08-31T00:06:32.444Z,81.01
2022-08-31T00:07:35.420Z,81.12
2022-08-31T00:08:37.304Z,80.87
2022-08-31T00:09:39.245Z,81.05
2022-08-31T00:10:44.917Z,81.01
2022-08-31T00:11:46.882Z,81.21
2022-08-31T00:12:49.753Z,81.31
2022-08-31T00:13:52.032Z,81.45
2022-08-31T00:14:53.914Z,81.60
2022-08-31T00:15:56.047Z,81.25
2022-08-31T00:16:58.440Z,81.05
2022-08-31T00:18:00.286Z,80.94
2022-08-31T00:19:02.601Z,81.06
2022-08-31T00:20:05.238Z,81.29
2022-08-31T00:21:07.139Z,81.19
2022-08-31T00:22:09.110Z,81.15
2022-08-31T00:23:11.986Z,80.89
2022-08-31T00:24:14.775Z,80.75
2022-08-31T00:25:16.721Z,80.55
2022-08-31T00:26:19.022Z,80.64
2022-08-31T00:27:22.255Z,81.11
2022-08-31T00:28:24.273Z,81.64
2022-08-31T00:29:26.179Z,81.84
2022-08-31T00:30:28.264Z,82.46
2022-08-31T00:31:30.215Z,82.71
2022-08-31T00:32:32.117Z,82.86
2022-08-31T00:33:36.935Z,82.80
2022-08-31T00:34:38.766Z,82.77
2022-08-31T00:35:42.202Z,82.80
2022-08-31T00:36:46.420Z,82.26
2022-08-31T00:37:48.283Z,82.01
2022-08-31T00:38:50.779Z,81.94
2022-08-31T00:39:53.378Z,82.07
2022-08-31T00:40:55.344Z,82.16
2022-08-31T00:41:57.296Z,82.20
2022-08-31T00:43:00.041Z,82.47
2022-08-31T00:44:03.639Z,82.34
2022-08-31T00:45:06.240Z,82.84
2022-08-31T00:46:09.944Z,83.14
2022-08-31T00:47:11.935Z,82.67
2022-08-31T00:48:13.755Z,82.54
2022-08-31T00:49:21.274Z,82.50
2022-08-31T00:50:24.410Z,82.31
2022-08-31T00:51:28.085Z,82.10
2022-08-31T00:52:33.195Z,82.00
2022-08-31T00:53:39.509Z,82.01
2022-08-31T00:54:55.711Z,82.20
2022-08-31T00:55:58.354Z,82.07
2022-08-31T00:57:00.663Z,82.39
2022-08-31T00:58:09.693Z,82.50
2022-08-31T00:59:12.869Z,82.28
2022-08-31T01:00:17.081Z,82.14
2022-08-31T01:01:20.498Z,82.00
2022-08-31T01:02:22.452Z,82.26
2022-08-31T01:03:24.781Z,82.39
2022-08-31T01:04:26.722Z,82.63
2022-08-31T01:05:29.488Z,82.72
2022-08-31T01:06:31.830Z,82.69
2022-08-31T01:07:33.813Z,82.67
2022-08-31T01:08:35.711Z,82.50
2022-08-31T01:09:40.652Z,82.43
2022-08-31T01:10:47.300Z,82.67
2022-08-31T01:11:49.261Z,83.18
2022-08-31T01:12:53.011Z,82.84
2022-08-31T01:13:55.343Z,82.79
2022-08-31T01:14:57.787Z,82.76
2022-08-31T01:16:02.556Z,82.65
2022-08-31T01:17:04.792Z,82.85
2022-08-31T01:18:07.281Z,82.85
2022-08-31T01:19:13.936Z,82.71
2022-08-31T01:20:20.637Z,83.11
2022-08-31T01:21:25.498Z,82.77
2022-08-31T01:22:30.954Z,82.64
2022-08-31T01:23:34.460Z,83.79
2022-08-31T01:24:37.558Z,83.90
2022-08-31T01:25:40.066Z,84.61
2022-08-31T01:26:42.307Z,84.65
2022-08-31T01:27:51.832Z,85.19
2022-08-31T01:28:57.605Z,85.72
2022-08-31T01:30:00.038Z,86.25
2022-08-31T01:31:04.980Z,86.23
2022-08-31T01:32:07.227Z,86.00
2022-08-31T01:33:09.621Z,86.19
2022-08-31T01:34:11.603Z,86.02
2022-08-31T01:35:13.418Z,85.73
2022-08-31T01:36:16.320Z,85.30
2022-08-31T01:37:18.339Z,85.24
2022-08-31T01:38:32.051Z,84.71
2022-08-31T01:39:33.899Z,84.55
2022-08-31T01:40:37.722Z,84.48
2022-08-31T01:41:43.704Z,84.28
2022-08-31T01:42:45.717Z,84.12
2022-08-31T01:43:47.618Z,83.79
2022-08-31T01:44:49.487Z,83.73
2022-08-31T01:45:52.074Z,83.69
2022-08-31T01:46:54.185Z,83.57
2022-08-31T01:47:56.041Z,83.56
2022-08-31T01:48:57.881Z,83.25
2022-08-31T01:49:59.737Z,83.09
2022-08-31T01:51:01.944Z,83.22
2022-08-31T01:52:04.569Z,83.14
2022-08-31T01:53:06.373Z,83.76
2022-08-31T01:54:08.259Z,84.19
2022-08-31T01:55:10.197Z,84.36
2022-08-31T01:56:13.752Z,84.16
2022-08-31T01:57:16.245Z,84.10
2022-08-31T01:58:23.629Z,84.22
2022-08-31T01:59:25.501Z,84.06
2022-08-31T02:00:29.158Z,84.11
2022-08-31T02:01:33.692Z,83.98
2022-08-31T02:02:36.801Z,83.92
2022-08-31T02:03:38.708Z,83.82
2022-08-31T02:04:40.584Z,83.76
2022-08-31T02:05:42.437Z,83.59
2022-08-31T02:06:45.419Z,83.96
2022-08-31T02:07:47.457Z,84.12
2022-08-31T02:08:49.389Z,83.81
2022-08-31T02:09:51.286Z,84.21
2022-08-31T02:10:53.220Z,84.13
2022-08-31T02:11:55.205Z,84.36
2022-08-31T02:12:57.079Z,84.14
2022-08-31T02:13:58.925Z,84.57
2022-08-31T02:15:00.862Z,84.64
2022-08-31T02:16:03.053Z,84.68
2022-08-31T02:17:05.155Z,84.98
2022-08-31T02:18:07.577Z,85.02
2022-08-31T02:19:09.596Z,85.23
2022-08-31T02:20:12.916Z,85.60
2022-08-31T02:21:14.767Z,85.52
2022-08-31T02:22:16.642Z,85.38
2022-08-31T02:23:18.720Z,85.42
2022-08-31T02:24:20.590Z,85.42
2022-08-31T02:25:22.428Z,84.91
2022-08-31T02:26:24.712Z,84.79
2022-08-31T02:27:26.841Z,84.90
2022-08-31T02:28:28.910Z,84.74
2022-08-31T02:29:30.852Z,84.48
2022-08-31T02:30:33.118Z,84.48
2022-08-31T02:31:35.585Z,84.17
2022-08-31T02:32:37.513Z,84.45
2022-08-31T02:33:39.664Z,84.57
2022-08-31T02:34:41.570Z,84.48
2022-08-31T02:35:43.906Z,84.20
2022-08-31T02:36:45.813Z,84.14
2022-08-31T02:37:48.803Z,84.15
2022-08-31T02:38:51.145Z,84.23
2022-08-31T02:39:53.154Z,84.33
2022-08-31T02:40:55.065Z,84.09
2022-08-31T02:41:56.971Z,84.14
2022-08-31T02:42:58.950Z,84.45
2022-08-31T02:44:00.812Z,84.59
2022-08-31T02:45:02.680Z,84.57
2022-08-31T02:46:04.822Z,84.50
2022-08-31T02:47:06.710Z,84.41
2022-08-31T02:48:10.112Z,84.57
2022-08-31T02:49:11.929Z,84.75
2022-08-31T02:50:13.739Z,84.43
2022-08-31T02:51:15.569Z,84.33
2022-08-31T02:52:17.412Z,84.18
2022-08-31T02:53:20.625Z,84.56
2022-08-31T02:54:22.559Z,85.33
2022-08-31T02:55:24.905Z,86.09
2022-08-31T02:56:26.800Z,86.01
2022-08-31T02:57:28.745Z,85.76
2022-08-31T02:58:30.693Z,85.40
2022-08-31T02:59:32.466Z,85.60
2022-08-31T03:00:34.769Z,85.36
2022-08-31T03:01:37.500Z,85.36
2022-08-31T03:02:41.374Z,84.97
2022-08-31T03:03:46.511Z,85.19
2022-08-31T03:04:50.565Z,85.20
2022-08-31T03:05:52.390Z,85.15
2022-08-31T03:06:54.291Z,85.08
2022-08-31T03:07:56.158Z,84.75
2022-08-31T03:09:00.499Z,84.79
2022-08-31T03:10:02.801Z,84.73
2022-08-31T03:11:04.598Z,84.54
2022-08-31T03:12:06.511Z,84.60
2022-08-31T03:13:08.292Z,84.14
2022-08-31T03:14:10.160Z,84.32
2022-08-31T03:15:12.428Z,84.54
2022-08-31T03:16:15.763Z,84.89
2022-08-31T03:17:17.621Z,84.68
2022-08-31T03:18:19.498Z,84.67
2022-08-31T03:19:22.069Z,84.44
2022-08-31T03:20:25.424Z,84.35
2022-08-31T03:21:27.420Z,84.40
2022-08-31T03:22:29.777Z,84.22
2022-08-31T03:23:32.245Z,84.14
2022-08-31T03:24:34.173Z,84.02
2022-08-31T03:25:35.995Z,84.17
2022-08-31T03:26:41.475Z,83.94
2022-08-31T03:27:44.060Z,83.97
2022-08-31T03:28:45.958Z,84.44
2022-08-31T03:29:47.727Z,84.66
2022-08-31T03:30:49.624Z,84.44
2022-08-31T03:31:51.560Z,84.81
2022-08-31T03:32:54.336Z,84.65
2022-08-31T03:34:03.365Z,84.63
2022-08-31T03:35:06.250Z,84.71
2022-08-31T03:36:08.029Z,84.51
2022-08-31T03:37:09.907Z,84.44
2022-08-31T03:38:16.196Z,84.40
2022-08-31T03:39:18.090Z,84.21
2022-08-31T03:40:20.015Z,84.28
2022-08-31T03:41:23.239Z,83.97
2022-08-31T03:42:25.691Z,84.07
2022-08-31T03:43:29.469Z,84.51
2022-08-31T03:44:31.389Z,84.16
2022-08-31T03:45:35.404Z,84.22
2022-08-31T03:46:38.075Z,84.41
2022-08-31T03:47:44.517Z,84.54
2022-08-31T03:48:50.260Z,84.48
2022-08-31T03:49:52.076Z,84.31
2022-08-31T03:50:54.706Z,84.14
2022-08-31T03:51:56.568Z,84.34
2022-08-31T03:52:59.078Z,84.29
2022-08-31T03:54:00.880Z,84.23
2022-08-31T03:55:03.025Z,84.36
2022-08-31T03:56:07.360Z,83.98
2022-08-31T03:57:09.297Z,84.11
2022-08-31T03:58:12.020Z,83.85
2022-08-31T03:59:13.987Z,84.01
2022-08-31T04:00:16.681Z,84.22
2022-08-31T04:01:18.571Z,84.36
2022-08-31T04:02:20.755Z,84.53
2022-08-31T04:03:23.543Z,84.27
2022-08-31T04:04:25.324Z,84.70
2022-08-31T04:05:31.504Z,84.20
2022-08-31T04:06:33.835Z,84.24
2022-08-31T04:07:42.707Z,84.10
2022-08-31T04:08:45.015Z,83.87
2022-08-31T04:09:47.647Z,84.00
2022-08-31T04:10:50.941Z,84.11
2022-08-31T04:11:52.926Z,83.87
2022-08-31T04:12:54.718Z,84.24
2022-08-31T04:13:57.696Z,84.13
2022-08-31T04:14:59.795Z,84.58
2022-08-31T04:16:01.802Z,84.27
2022-08-31T04:17:03.697Z,84.38
2022-08-31T04:18:06.179Z,84.44
2022-08-31T04:19:09.043Z,84.48
2022-08-31T04:20:10.921Z,84.60
2022-08-31T04:21:17.339Z,84.40
2022-08-31T04:22:19.136Z,84.50
2022-08-31T04:23:20.964Z,84.64
2022-08-31T04:24:23.064Z,84.59
2022-08-31T04:25:24.891Z,84.39
2022-08-31T04:26:37.162Z,84.72
2022-08-31T04:27:39.136Z,84.68
2022-08-31T04:28:40.991Z,84.29
2022-08-31T04:29:42.895Z,84.35
2022-08-31T04:30:44.845Z,84.59
2022-08-31T04:31:47.490Z,84.52
2022-08-31T04:32:49.802Z,84.45
2022-08-31T04:33:52.382Z,84.23
2022-08-31T04:34:56.484Z,84.16
2022-08-31T04:35:58.569Z,84.08
2022-08-31T04:37:00.444Z,84.07
2022-08-31T04:38:02.316Z,84.03
2022-08-31T04:39:04.784Z,84.52
2022-08-31T04:40:07.466Z,84.66
2022-08-31T04:41:11.039Z,84.49
2022-08-31T04:42:13.748Z,84.63
2022-08-31T04:43:15.654Z,84.57
2022-08-31T04:44:19.957Z,84.40
2022-08-31T04:45:23.324Z,84.35
2022-08-31T04:46:26.147Z,84.29
2022-08-31T04:47:28.116Z,84.55
2022-08-31T04:48:30.050Z,84.38
2022-08-31T04:49:31.942Z,84.94
2022-08-31T04:50:33.707Z,85.14
2022-08-31T04:51:36.408Z,85.26
2022-08-31T04:52:38.763Z,85.28
2022-08-31T04:53:41.198Z,85.29
2022-08-31T04:54:42.975Z,84.94
2022-08-31T04:55:44.797Z,84.88
2022-08-31T04:56:46.687Z,84.87
2022-08-31T04:57:48.466Z,85.24
2022-08-31T04:58:54.720Z,85.30
2022-08-31T04:59:56.592Z,85.39
2022-08-31T05:00:58.418Z,85.58
2022-08-31T05:02:01.015Z,85.69
2022-08-31T05:03:02.889Z,85.68
2022-08-31T05:04:05.639Z,85.30
2022-08-31T05:05:07.619Z,85.22
2022-08-31T05:06:13.328Z,85.13
2022-08-31T05:07:15.125Z,84.92
2022-08-31T05:08:16.976Z,84.72
2022-08-31T05:09:20.775Z,84.84
2022-08-31T05:10:23.636Z,85.11
2022-08-31T05:11:26.732Z,85.09
2022-08-31T05:12:28.579Z,85.49
2022-08-31T05:13:30.425Z,85.50
2022-08-31T05:14:32.336Z,85.34
2022-08-31T05:15:34.271Z,85.13
2022-08-31T05:16:37.974Z,85.26
2022-08-31T05:17:39.742Z,85.67
2022-08-31T05:18:42.604Z,86.08
2022-08-31T05:19:44.642Z,85.86
2022-08-31T05:20:47.124Z,85.56
2022-08-31T05:21:49.263Z,85.80
2022-08-31T05:22:51.332Z,86.42
2022-08-31T05:23:53.597Z,86.45
2022-08-31T05:24:55.474Z,86.10
2022-08-31T05:25:57.263Z,85.85
2022-08-31T05:26:59.139Z,85.80
2022-08-31T05:28:00.969Z,85.80
2022-08-31T05:29:04.572Z,85.62
2022-08-31T05:30:09.192Z,85.66
2022-08-31T05:31:11.018Z,85.43
2022-08-31T05:32:13.024Z,85.30
2022-08-31T05:33:15.265Z,85.65
2022-08-31T05:34:17.989Z,86.41
2022-08-31T05:35:19.848Z,86.42
2022-08-31T05:36:21.646Z,86.45
2022-08-31T05:37:24.473Z,86.45
2022-08-31T05:38:26.429Z,87.21
2022-08-31T05:39:28.282Z,87.66
2022-08-31T05:40:30.111Z,87.88
2022-08-31T05:41:32.118Z,88.26
2022-08-31T05:42:34.567Z,88.31
2022-08-31T05:43:36.608Z,88.26
2022-08-31T05:44:38.720Z,88.44
2022-08-31T05:45:43.391Z,88.50
2022-08-31T05:46:45.288Z,88.74
2022-08-31T05:47:56.804Z,88.70
2022-08-31T05:48:58.575Z,88.98
2022-08-31T05:50:00.377Z,88.57
2022-08-31T05:51:04.039Z,88.25
2022-08-31T05:52:06.497Z,87.84
2022-08-31T05:53:08.889Z,87.62
2022-08-31T05:54:11.116Z,87.39
2022-08-31T05:55:13.163Z,87.26
2022-08-31T05:56:18.929Z,87.21
2022-08-31T05:57:25.863Z,87.10
2022-08-31T05:58:28.788Z,87.17
2022-08-31T05:59:31.491Z,87.24
2022-08-31T06:00:33.414Z,87.31
2022-08-31T06:01:37.716Z,87.40
2022-08-31T06:02:40.294Z,87.55
2022-08-31T06:03:42.628Z,87.90
2022-08-31T06:04:44.497Z,88.23
2022-08-31T06:05:46.353Z,88.07
2022-08-31T06:06:48.200Z,87.77
2022-08-31T06:07:50.714Z,87.79
2022-08-31T06:08:52.851Z,87.83
2022-08-31T06:09:54.862Z,87.65
2022-08-31T06:11:01.011Z,87.58
2022-08-31T06:12:03.881Z,87.68
2022-08-31T06:13:06.890Z,87.47
2022-08-31T06:14:10.346Z,87.10
2022-08-31T06:15:12.248Z,86.73
2022-08-31T06:16:14.757Z,86.54
2022-08-31T06:17:17.697Z,86.61
2022-08-31T06:18:21.431Z,86.94
2022-08-31T06:19:23.311Z,86.75
2022-08-31T06:20:25.210Z,86.58
2022-08-31T06:21:33.898Z,86.50
2022-08-31T06:22:36.772Z,86.34
2022-08-31T06:23:39.596Z,86.49
2022-08-31T06:24:41.845Z,86.71
2022-08-31T06:25:43.671Z,86.66
2022-08-31T06:26:58.935Z,86.81
2022-08-31T06:28:01.916Z,87.16
2022-08-31T06:29:05.369Z,87.47
2022-08-31T06:30:08.180Z,87.28
2022-08-31T06:31:18.857Z,87.14
2022-08-31T06:32:21.907Z,87.11
2022-08-31T06:33:23.804Z,87.28
2022-08-31T06:34:25.651Z,87.68
2022-08-31T06:35:27.633Z,87.38
2022-08-31T06:36:30.475Z,87.41
2022-08-31T06:37:32.316Z,87.14
2022-08-31T06:38:34.296Z,87.01
2022-08-31T06:39:36.470Z,86.79
2022-08-31T06:40:38.354Z,86.47
2022-08-31T06:41:41.003Z,86.38
2022-08-31T06:42:42.848Z,86.40
2022-08-31T06:43:44.969Z,85.99
2022-08-31T06:44:46.957Z,85.74
2022-08-31T06:45:48.842Z,85.67
2022-08-31T06:46:51.418Z,85.51
2022-08-31T06:47:53.480Z,85.69
2022-08-31T06:48:56.084Z,85.79
2022-08-31T06:49:58.089Z,86.00
2022-08-31T06:51:00.480Z,86.07
2022-08-31T06:52:02.770Z,86.13
2022-08-31T06:53:04.876Z,86.06
2022-08-31T06:54:27.899Z,86.56
2022-08-31T06:55:30.022Z,86.75
2022-08-31T06:56:31.891Z,86.84
2022-08-31T06:57:35.537Z,87.29
2022-08-31T06:58:38.217Z,87.81
2022-08-31T06:59:40.128Z,88.36
2022-08-31T07:00:43.196Z,88.63
2022-08-31T07:01:45.085Z,88.19
2022-08-31T07:02:57.214Z,88.20
2022-08-31T07:04:00.490Z,88.76
2022-08-31T07:05:02.271Z,88.54
2022-08-31T07:06:14.879Z,88.17
2022-08-31T07:07:16.786Z,87.73
2022-08-31T07:08:20.148Z,87.68
2022-08-31T07:09:22.088Z,87.67
2022-08-31T07:10:23.972Z,87.26
2022-08-31T07:11:27.906Z,86.66
2022-08-31T07:12:31.012Z,86.76
2022-08-31T07:13:33.068Z,86.76
2022-08-31T07:14:36.012Z,87.06
2022-08-31T07:15:37.897Z,87.24
2022-08-31T07:16:40.243Z,87.41
2022-08-31T07:17:42.126Z,87.43
2022-08-31T07:18:44.509Z,87.58
2022-08-31T07:19:46.310Z,87.61
2022-08-31T07:20:48.296Z,87.64
2022-08-31T07:21:52.189Z,87.43
2022-08-31T07:22:53.986Z,87.09
2022-08-31T07:23:57.710Z,87.06
2022-08-31T07:24:59.622Z,87.19
2022-08-31T07:26:09.325Z,87.23
2022-08-31T07:27:16.620Z,86.57
2022-08-31T07:28:18.558Z,86.67
2022-08-31T07:29:21.992Z,86.49
2022-08-31T07:30:24.104Z,86.15
2022-08-31T07:31:30.655Z,85.76
2022-08-31T07:32:32.508Z,85.73
2022-08-31T07:33:39.247Z,85.68
2022-08-31T07:34:41.719Z,85.43
2022-08-31T07:35:43.648Z,85.32
2022-08-31T07:37:04.025Z,85.44
2022-08-31T07:38:24.337Z,86.15
2022-08-31T07:39:45.360Z,86.34
2022-08-31T07:41:05.739Z,86.38
2022-08-31T07:42:10.334Z,86.26
2022-08-31T07:43:12.485Z,86.41
2022-08-31T07:44:15.211Z,86.76
2022-08-31T07:45:22.636Z,86.64
2022-08-31T07:46:30.331Z,86.39
2022-08-31T07:47:32.812Z,86.06
2022-08-31T07:48:34.720Z,85.71
2022-08-31T07:49:37.463Z,85.59
2022-08-31T07:50:45.224Z,85.50
2022-08-31T07:51:52.767Z,85.94
2022-08-31T07:52:56.072Z,85.60
2022-08-31T07:53:57.945Z,85.64
2022-08-31T07:55:08.086Z,85.82
2022-08-31T07:56:09.980Z,86.06
2022-08-31T07:57:11.900Z,86.17
2022-08-31T07:58:15.718Z,85.90
2022-08-31T07:59:19.337Z,85.67
2022-08-31T08:00:28.558Z,85.61
2022-08-31T08:01:32.475Z,85.56
2022-08-31T08:02:39.019Z,85.72
2022-08-31T08:03:45.072Z,86.06
2022-08-31T08:04:48.276Z,86.33
2022-08-31T08:05:50.787Z,86.80
2022-08-31T08:06:56.333Z,86.43
2022-08-31T08:08:10.667Z,85.89
2022-08-31T08:09:25.008Z,85.59
2022-08-31T08:10:27.857Z,85.30
2022-08-31T08:11:29.773Z,85.02
2022-08-31T08:12:35.563Z,84.83
2022-08-31T08:13:38.343Z,84.70
2022-08-31T08:14:40.454Z,84.03
2022-08-31T08:15:42.337Z,83.86
2022-08-31T08:16:44.288Z,83.99
2022-08-31T08:17:46.216Z,83.67
2022-08-31T08:18:48.204Z,83.68
2022-08-31T08:19:50.066Z,83.42
2022-08-31T08:20:53.067Z,83.30
2022-08-31T08:21:55.872Z,83.28
2022-08-31T08:22:58.129Z,82.90
2022-08-31T08:24:00.435Z,83.14
2022-08-31T08:25:02.622Z,83.26
2022-08-31T08:26:09.506Z,83.17
2022-08-31T08:27:13.905Z,82.94
2022-08-31T08:29:40.375Z,82.25
2022-08-31T08:30:44.303Z,81.69
2022-08-31T08:31:53.351Z,81.33
2022-08-31T08:32:55.260Z,81.69
2022-08-31T08:33:57.261Z,81.94
2022-08-31T08:34:59.561Z,82.04
2022-08-31T08:36:03.399Z,81.91
2022-08-31T08:37:06.270Z,80.42
2022-08-31T08:38:08.193Z,80.72
2022-08-31T08:39:10.467Z,81.06
2022-08-31T08:40:31.369Z,80.60
2022-08-31T08:41:35.094Z,80.78
2022-08-31T08:42:36.987Z,80.86
2022-08-31T08:43:40.836Z,80.92
2022-08-31T08:44:45.905Z,80.76
2022-08-31T08:45:50.338Z,80.64
2022-08-31T08:46:53.970Z,80.50
2022-08-31T08:47:57.223Z,79.46
2022-08-31T08:49:01.109Z,79.34
2022-08-31T08:50:06.932Z,78.65
2022-08-31T08:51:19.607Z,78.34
2022-08-31T08:52:21.376Z,78.60
2022-08-31T08:53:25.331Z,79.07
2022-08-31T08:54:31.040Z,79.23
2022-08-31T08:55:37.309Z,79.15
2022-08-31T08:56:42.383Z,78.60
2022-08-31T08:57:45.473Z,78.65
2022-08-31T08:58:47.390Z,78.61
2022-08-31T08:59:51.288Z,78.84
2022-08-31T09:00:54.421Z,78.49
2022-08-31T09:02:02.420Z,78.58
2022-08-31T09:03:07.264Z,78.35
2022-08-31T09:04:27.524Z,78.78
2022-08-31T09:05:52.542Z,77.83
2022-08-31T09:07:23.229Z,78.24
2022-08-31T09:08:57.369Z,78.47
2022-08-31T09:10:07.847Z,78.39
2022-08-31T09:11:20.419Z,78.48
2022-08-31T09:12:32.398Z,78.73
2022-08-31T09:14:06.520Z,78.52
2022-08-31T09:15:36.614Z,77.53
2022-08-31T09:16:42.555Z,78.08
2022-08-31T09:17:59.985Z,78.37
2022-08-31T09:19:05.296Z,78.64
2022-08-31T09:20:07.883Z,78.59
2022-08-31T09:21:27.604Z,78.79
2022-08-31T09:22:30.540Z,78.09
2022-08-31T09:23:35.841Z,78.25
2022-08-31T09:24:38.781Z,77.93
2022-08-31T09:25:52.721Z,78.39
2022-08-31T09:27:18.814Z,76.82
2022-08-31T09:28:34.322Z,77.44
2022-08-31T09:29:45.310Z,77.84
2022-08-31T09:30:53.232Z,77.96
2022-08-31T09:32:06.467Z,77.90
2022-08-31T09:33:15.960Z,77.82
2022-08-31T09:34:29.819Z,77.25
2022-08-31T09:35:41.500Z,77.20
2022-08-31T09:36:43.463Z,77.17
2022-08-31T09:37:57.579Z,77.10
2022-08-31T09:39:14.047Z,77.31
2022-08-31T09:40:24.448Z,77.43
2022-08-31T09:41:29.330Z,77.33
2022-08-31T09:42:33.888Z,77.37
2022-08-31T09:43:41.183Z,77.31
2022-08-31T09:44:43.947Z,77.22
2022-08-31T09:45:53.214Z,77.24
2022-08-31T09:47:01.561Z,77.10
2022-08-31T09:48:05.263Z,77.26
2022-08-31T09:49:18.965Z,77.36
2022-08-31T09:50:34.969Z,77.61
2022-08-31T09:51:38.762Z,77.62
2022-08-31T09:52:59.130Z,78.00
2022-08-31T09:54:25.015Z,78.45
2022-08-31T09:55:28.208Z,78.49
2022-08-31T09:56:30.207Z,78.50
2022-08-31T09:57:50.914Z,78.42
2022-08-31T09:59:03.112Z,78.07
2022-08-31T10:00:05.195Z,78.49
2022-08-31T10:01:13.571Z,78.61
2022-08-31T10:02:23.020Z,78.78
2022-08-31T10:03:29.019Z,78.86
2022-08-31T10:04:36.927Z,79.03
2022-08-31T10:05:43.884Z,78.91
2022-08-31T10:06:53.315Z,79.09
2022-08-31T10:08:04.572Z,78.91
2022-08-31T10:09:10.745Z,79.13
2022-08-31T10:10:28.114Z,79.28
2022-08-31T10:11:35.385Z,79.67
2022-08-31T10:12:49.279Z,79.79
2022-08-31T10:13:58.053Z,79.94
2022-08-31T10:15:04.344Z,79.87
2022-08-31T10:16:17.359Z,80.15
2022-08-31T10:17:47.402Z,80.33
2022-08-31T10:18:59.237Z,80.47
2022-08-31T10:20:25.310Z,80.39
2022-08-31T10:21:51.630Z,80.59
2022-08-31T10:22:56.747Z,80.77
2022-08-31T10:23:59.163Z,80.98
2022-08-31T10:25:12.174Z,81.18
2022-08-31T10:26:19.175Z,81.25
2022-08-31T10:27:31.819Z,81.27
2022-08-31T10:28:40.758Z,81.46
2022-08-31T10:29:46.379Z,81.65
2022-08-31T10:30:52.157Z,81.98
2022-08-31T10:31:55.921Z,81.98
2022-08-31T10:33:05.261Z,82.16
2022-08-31T10:34:25.596Z,82.09
2022-08-31T10:35:46.090Z,82.31
2022-08-31T10:36:50.405Z,82.13
2022-08-31T10:37:55.730Z,82.09
2022-08-31T10:38:58.175Z,82.35
2022-08-31T10:40:05.822Z,82.22
2022-08-31T10:41:10.647Z,82.15
2022-08-31T10:42:17.359Z,82.37
2022-08-31T10:43:21.709Z,82.19
2022-08-31T10:44:36.810Z,82.37
2022-08-31T10:45:40.630Z,82.53
2022-08-31T10:46:42.974Z,82.53
2022-08-31T10:47:46.892Z,82.51
2022-08-31T10:48:54.805Z,82.72
2022-08-31T10:49:57.979Z,83.15
2022-08-31T10:51:14.431Z,83.13
2022-08-31T10:52:21.632Z,83.09
2022-08-31T10:53:27.658Z,83.08
2022-08-31T10:54:33.255Z,83.28
2022-08-31T10:55:40.650Z,83.60
2022-08-31T10:56:59.422Z,84.23
2022-08-31T10:58:13.601Z,84.22
2022-08-31T10:59:21.346Z,84.54
2022-08-31T11:00:46.140Z,84.37
2022-08-31T11:02:06.515Z,84.43
2022-08-31T11:03:11.470Z,84.50
2022-08-31T11:04:20.772Z,84.33
2022-08-31T11:05:27.394Z,84.31
2022-08-31T11:06:29.186Z,84.30
2022-08-31T11:07:36.068Z,84.42
2022-08-31T11:08:49.257Z,84.36
2022-08-31T11:10:09.399Z,85.13
2022-08-31T11:11:17.602Z,85.90
2022-08-31T11:12:23.682Z,85.67
2022-08-31T11:13:26.434Z,85.55
2022-08-31T11:14:28.214Z,85.71
2022-08-31T11:15:43.936Z,85.51
2022-08-31T11:16:46.685Z,85.60
2022-08-31T11:17:54.307Z,85.74
2022-08-31T11:18:56.119Z,85.69
2022-08-31T11:20:09.860Z,85.61
2022-08-31T11:21:29.060Z,85.59
2022-08-31T11:22:46.558Z,85.71
2022-08-31T11:23:51.399Z,86.12
2022-08-31T11:25:03.743Z,85.92
2022-08-31T11:26:14.458Z,85.75
2022-08-31T11:27:23.754Z,85.72
2022-08-31T11:28:34.362Z,86.01
2022-08-31T11:29:48.739Z,85.94
2022-08-31T11:30:51.656Z,86.25
2022-08-31T11:31:55.327Z,86.17
2022-08-31T11:33:00.576Z,85.90
2022-08-31T11:34:16.742Z,85.85
2022-08-31T11:35:42.242Z,85.81
2022-08-31T11:36:55.952Z,85.68
2022-08-31T11:37:59.177Z,85.50
2022-08-31T11:39:03.996Z,85.78
2022-08-31T11:40:10.098Z,85.78
2022-08-31T11:41:31.915Z,85.80
2022-08-31T11:42:42.762Z,85.86
2022-08-31T11:43:46.190Z,85.66
2022-08-31T11:45:23.600Z,85.87
2022-08-31T11:46:29.038Z,85.85
2022-08-31T11:47:30.951Z,85.76
2022-08-31T11:48:51.588Z,85.98
2022-08-31T11:49:57.152Z,86.00
2022-08-31T11:51:04.082Z,85.98
2022-08-31T11:52:10.661Z,86.00
2022-08-31T11:53:35.158Z,86.17
2022-08-31T11:54:42.389Z,86.06
2022-08-31T11:55:52.802Z,86.08
2022-08-31T11:56:57.093Z,86.15
2022-08-31T11:58:07.843Z,86.26
2022-08-31T11:59:34.337Z,86.12
2022-08-31T12:00:41.896Z,86.34
2022-08-31T12:01:45.318Z,86.51
2022-08-31T12:03:03.014Z,86.34
2022-08-31T12:04:06.354Z,86.09
2022-08-31T12:05:08.502Z,86.24
2022-08-31T12:06:25.892Z,86.65
2022-08-31T12:07:31.953Z,86.68
2022-08-31T12:08:47.074Z,86.83
2022-08-31T12:09:49.485Z,87.15
2022-08-31T12:10:51.475Z,87.14
2022-08-31T12:11:57.686Z,87.25
2022-08-31T12:13:07.725Z,87.24
2022-08-31T12:14:26.348Z,87.51
2022-08-31T12:15:34.807Z,87.33
2022-08-31T12:16:42.551Z,87.32
2022-08-31T12:17:53.362Z,87.20
2022-08-31T12:19:39.687Z,87.66
2022-08-31T12:21:13.532Z,87.11
2022-08-31T12:22:59.455Z,87.33
2022-08-31T12:24:06.974Z,87.31
2022-08-31T12:25:14.285Z,86.99
2022-08-31T12:26:19.224Z,86.73
2022-08-31T12:27:35.787Z,87.13
2022-08-31T12:28:49.576Z,86.89
2022-08-31T12:29:51.478Z,87.08
2022-08-31T12:30:55.132Z,87.01
2022-08-31T12:32:05.452Z,87.04
2022-08-31T12:33:15.318Z,86.74
2022-08-31T12:34:20.019Z,86.89
2022-08-31T12:35:27.007Z,86.98
2022-08-31T12:36:30.083Z,86.80
2022-08-31T12:37:33.562Z,86.96
2022-08-31T12:38:35.382Z,87.01
2022-08-31T12:39:37.279Z,87.21
2022-08-31T12:40:43.411Z,87.31
2022-08-31T12:41:49.667Z,87.21
2022-08-31T12:42:57.117Z,87.16
2022-08-31T12:43:59.004Z,87.13
2022-08-31T12:45:05.951Z,87.36
2022-08-31T12:46:10.920Z,87.41
2022-08-31T12:47:15.478Z,87.69
2022-08-31T12:48:20.334Z,87.93
2022-08-31T12:49:39.156Z,87.88
2022-08-31T12:50:45.376Z,88.03
2022-08-31T12:51:47.182Z,88.25
2022-08-31T12:52:49.054Z,88.20
2022-08-31T12:53:56.614Z,88.19
2022-08-31T12:55:14.387Z,88.32
2022-08-31T12:56:34.442Z,88.26
2022-08-31T12:57:45.268Z,88.30
2022-08-31T12:58:51.514Z,88.19
2022-08-31T13:00:01.635Z,88.30
2022-08-31T13:01:08.634Z,88.36
2022-08-31T13:02:13.322Z,88.93
2022-08-31T13:03:21.828Z,88.77
2022-08-31T13:04:24.628Z,88.83
2022-08-31T13:05:34.610Z,88.56
2022-08-31T13:06:38.371Z,88.17
2022-08-31T13:07:40.281Z,88.40
2022-08-31T13:08:46.529Z,88.37
2022-08-31T13:10:01.377Z,88.41
2022-08-31T13:11:24.991Z,88.50
2022-08-31T13:12:26.837Z,88.55
2022-08-31T13:13:29.785Z,88.51
2022-08-31T13:14:42.331Z,88.54
2022-08-31T13:15:44.541Z,88.62
2022-08-31T13:16:48.234Z,88.28
2022-08-31T13:17:50.258Z,88.49
2022-08-31T13:18:58.630Z,88.33
2022-08-31T13:20:02.971Z,88.53
2022-08-31T13:21:07.619Z,88.84
2022-08-31T13:22:12.352Z,89.11
2022-08-31T13:23:25.008Z,88.90
2022-08-31T13:24:31.085Z,88.90
2022-08-31T13:25:36.397Z,88.73
2022-08-31T13:26:38.984Z,88.82
2022-08-31T13:27:47.039Z,88.69
2022-08-31T13:28:51.387Z,89.09
2022-08-31T13:29:56.281Z,89.13
2022-08-31T13:31:03.034Z,88.83
2022-08-31T13:32:05.330Z,88.60
2022-08-31T13:33:36.354Z,88.94
2022-08-31T13:34:44.336Z,88.82
2022-08-31T13:35:50.030Z,88.48
2022-08-31T13:36:55.406Z,88.66
2022-08-31T13:38:05.615Z,88.32
2022-08-31T13:39:19.529Z,88.37
2022-08-31T13:40:25.043Z,88.19
2022-08-31T13:41:41.718Z,88.23
2022-08-31T13:42:45.894Z,89.07
2022-08-31T13:43:57.238Z,89.17
2022-08-31T13:45:03.389Z,89.62
2022-08-31T13:46:05.534Z,89.77
2022-08-31T13:47:20.338Z,89.60
2022-08-31T13:48:28.643Z,89.23
2022-08-31T13:49:38.428Z,89.19
2022-08-31T13:50:53.435Z,89.11
2022-08-31T13:51:55.760Z,89.00
2022-08-31T13:54:28.287Z,88.57
2022-08-31T13:55:42.212Z,88.75
2022-08-31T13:56:59.105Z,89.09
2022-08-31T13:58:08.330Z,90.11
2022-08-31T13:59:24.760Z,90.31
2022-08-31T14:00:32.830Z,90.59
2022-08-31T14:01:36.965Z,90.64
2022-08-31T14:02:39.801Z,90.11
2022-08-31T14:03:57.487Z,90.27
2022-08-31T14:05:00.775Z,90.04
2022-08-31T14:06:24.237Z,90.31
2022-08-31T14:07:45.977Z,89.97
2022-08-31T14:08:50.224Z,89.93